• Join FlightAware (Why Join?)
  • Login
  • US Flag 
12:48AM EDT


 

Airport Tracker/Info


-or-


 

Live Flight TrackerFlight Track Log ✈ SWA1739 ✈ 20-May-2013 ✈ KBWI - KPWM

Flight Track Log - Related Links

Times and Time Zones

All times are in EDT time to prevent confusion due to time zone crossing. See the SWA1739 flight status page for this flight to view local times or setup timezone preferences in your user account.

Time Position Orientation Groundspeed Altitude Reporting Facility
EDT Latitude Longitude Course Direction KTS MPH feet Rate Location/Type
10:14AM 39.1833 -76.7167 127° Southeast 169 194 1,800  Level Potomac TRACON
10:17AM 39.1053 -76.5814 127° Southeast 201 231 7,500 2,640 Climbing Washington Center
10:18AM 39.1103 -76.4797 86° East 249 287 11,000 3,120 Climbing Washington Center
10:19AM 39.1297 -76.3542 79° East 298 343 13,700 3,000 Climbing Washington Center
10:20AM 39.1492 -76.2233 79° East 334 384 17,000 2,880 Climbing Washington Center
10:21AM 39.1644 -76.0869 82° East 367 422 19,600 2,520 Climbing Washington Center
10:22AM 39.1797 -75.9425 82° East 391 450 22,100 1,680 Climbing Washington Center
10:23AM 39.2508 -75.8061 56° Northeast 396 456 23,000 660 Climbing Washington Center
10:24AM 39.3342 -75.7017 44° Northeast 403 464 23,400 1,260 Climbing Washington Center
10:25AM 39.4094 -75.6022 46° Northeast 417 480 25,600 2,100 Climbing Washington Center
10:26AM 39.5031 -75.4814 45° Northeast 422 486 27,700 1,980 Climbing Washington Center
10:28AM 39.6675 -75.2558 47° Northeast 422 486 31,400 1,920 Climbing New York Center
10:29AM 39.7444 -75.1500 47° Northeast 441 507 33,400 1,740 Climbing New York Center
10:30AM 39.8392 -75.0153 47° Northeast 450 518 35,000 780 Climbing New York Center
10:31AM 39.9225 -74.8986 47° Northeast 450 518 35,000  Level New York Center
10:32AM 40.0011 -74.7950 45° Northeast 450 518 35,000  Level New York Center
10:33AM 40.0842 -74.6775 47° Northeast 445 512 35,000  Level New York Center
10:34AM 40.1672 -74.5600 47° Northeast 440 506 35,000  Level New York Center
10:36AM 40.3447 -74.3133 47° Northeast 440 506 35,000  Level Boston Center
10:37AM 40.4256 -74.1983 47° Northeast 433 498 35,000  Level Boston Center
10:38AM 40.4917 -74.1019 48° Northeast 433 498 35,000  Level Boston Center
10:39AM 40.5789 -73.9758 48° Northeast 433 498 35,000  Level Boston Center
10:40AM 40.6617 -73.8600 47° Northeast 433 498 35,000  Level Boston Center
10:41AM 40.7422 -73.7411 48° Northeast 433 498 35,000  Level Boston Center
10:42AM 40.8250 -73.6222 47° Northeast 438 504 35,000  Level Boston Center
10:43AM 40.9053 -73.5028 48° Northeast 438 504 35,000  Level Boston Center
10:44AM 40.9897 -73.3833 47° Northeast 438 504 35,000  Level Boston Center
10:45AM 41.0761 -73.2494 49° Northeast 438 504 35,000  Level Boston Center
10:46AM 41.1583 -73.1294 48° Northeast 438 504 35,000  Level Boston Center
10:47AM 41.2236 -72.9892 58° Northeast 438 504 35,000  Level Boston Center
10:48AM 41.2867 -72.8600 57° Northeast 445 512 35,000  Level Boston Center
10:49AM 41.3517 -72.7222 58° Northeast 445 512 35,000  Level Boston Center
10:50AM 41.4144 -72.5842 59° Northeast 445 512 35,000  Level Boston Center
10:51AM 41.4772 -72.4456 59° Northeast 440 506 35,000  Level Boston Center
10:52AM 41.5439 -72.2986 59° Northeast 435 501 35,000  Level Boston Center
10:53AM 41.6081 -72.1569 59° Northeast 435 501 35,000  Level Boston Center
10:54AM 41.6722 -72.0203 58° Northeast 435 501 35,000  Level Boston Center
10:55AM 41.7364 -71.8781 59° Northeast 430 495 35,000  Level Boston Center
10:56AM 41.8083 -71.7467 54° Northeast 430 495 35,000  Level Boston Center
10:57AM 41.8889 -71.6231 49° Northeast 430 495 35,000  Level Boston Center
10:58AM 41.9653 -71.5186 45° Northeast 435 501 35,000 -300 Level Boston Center
10:59AM 42.0433 -71.3972 49° Northeast 430 495 34,400 -1,440 Descending Boston Center
11:00AM 42.1214 -71.2758 49° Northeast 430 495 32,200 -2,100 Descending Boston Center
11:01AM 42.1972 -71.1567 49° Northeast 424 488 30,200 -2,040 Descending Boston Center
11:02AM 42.2708 -71.0400 50° Northeast 408 470 28,200 -1,980 Descending Boston Center
11:03AM 42.3403 -70.9261 50° Northeast 397 457 26,300 -1,860 Descending Boston Center
11:04AM 42.4158 -70.8061 50° Northeast 392 451 24,500 -1,200 Descending Boston Center
11:05AM 42.5022 -70.7336 32° Northeast 360 414 24,000 -900 Descending Boston Center
11:06AM 42.5953 -70.6858 21° North 354 407 22,700 -1,560 Descending Boston Center
11:07AM 42.6883 -70.6353 22° Northeast 354 407 20,900 -1,800 Descending Boston Center
11:08AM 42.7750 -70.5817 24° Northeast 348 400 19,200 -1,620 Descending Boston Center
11:09AM 42.8492 -70.5342 25° Northeast 330 380 17,700 -1,740 Descending Boston Center
11:10AM 42.9400 -70.4775 25° Northeast 330 380 15,800 -1,800 Descending Boston Center
11:11AM 43.0119 -70.4297 26° Northeast 325 374 14,200 -1,680 Descending Boston Center
11:12AM 43.0942 -70.3617 31° Northeast 310 357 12,500 -1,680 Descending Boston Center
11:13AM 43.1703 -70.2992 31° Northeast 310 357 10,900 -1,440 Descending Boston Center
11:14AM 43.2317 -70.2431 34° Northeast 304 350 9,700 -1,680 Descending Boston Center
11:15AM 43.3033 -70.1803 33° Northeast 290 334 7,600 -1,920 Descending Boston Center
11:16AM 43.3672 -70.1439 22° Northeast 272 313 5,900 -1,560 Descending Boston Center
11:17AM 43.4478 -70.1064 19° North 261 300 4,200 -1,680 Descending Boston Center
11:18AM 43.5181 -70.0722 19° North 244 281 2,300 -1,140 Descending Boston Center
11:19AM 43.5742 -70.0642 North 226 260 2,000 -300 Descending Boston Center
11:20AM 43.6106 -70.1117 317° Northwest 170 196 1,800 -120 Descending Boston Center
11:21AM 43.6322 -70.1567 304° West 159 183 1,800 -300 Level Boston Center
11:22AM 43.6397 -70.2139 280° West 137 158 1,300 -600 Descending Boston Center
11:23AM 43.6425 -70.2567 275° West 137 158 700 -600 Descending Boston Center
11:24AM 43.6456 -70.3111 274° West 137 158 200 -540 Descending Boston Center
11:26AM 43.6456 -70.3086 270° West  Level Estimated
11:33AM 43.6456 -70.3086 270° West  Level Estimated